Time;durP1;ratioP1;P1;durP2;ratioP2;P2;SDS_P1;SDS_P2;PMS_P1;PMS_P2;Temp;Humidity;BMP_temperature;BMP_pressure;BME280_temperature;BME280_humidity;BME280_pressure;Samples;Min_cycle;Max_cycle;Signal;HPM_P1;HPM_P2
2022/04/21 00:00:53;;;;;;;13.68;12.65;;;10.10;56.70;;;;;;5135142;27;20197;-57
2022/04/21 00:03:20;;;;;;;13.00;12.00;;;10.10;58.10;;;;;;5136383;27;20564;-57
2022/04/21 00:05:46;;;;;;;14.38;13.27;;;10.10;59.10;;;;;;5136425;27;20201;-56
2022/04/21 00:08:16;;;;;;;14.25;12.75;;;10.00;59.50;;;;;;5136317;27;20303;-56
2022/04/21 00:10:44;;;;;;;13.20;12.30;;;9.80;60.50;;;;;;5136203;27;20321;-57
2022/04/21 00:13:12;;;;;;;13.00;12.00;;;9.80;60.10;;;;;;5136159;27;20291;-57
2022/04/21 00:15:39;;;;;;;14.10;13.05;;;9.80;58.50;;;;;;5134986;27;20201;-57
2022/04/21 00:18:06;;;;;;;13.30;12.30;;;9.80;60.00;;;;;;5136250;27;20315;-57
2022/04/21 00:20:34;;;;;;;12.93;11.93;;;9.70;60.00;;;;;;5136113;27;20233;-57
2022/04/21 00:25:45;;;;;;;14.13;13.02;;;9.70;60.30;;;;;;5136134;27;20667;-57
2022/04/21 00:28:13;;;;;;;14.45;13.25;;;9.60;61.70;;;;;;5136034;27;20296;-57
2022/04/21 00:30:40;;;;;;;14.05;13.05;;;9.60;60.90;;;;;;5134549;27;20235;-56
2022/04/21 00:33:06;;;;;;;14.20;13.15;;;9.60;60.40;;;;;;5135981;27;20234;-56
2022/04/21 00:35:33;;;;;;;13.85;12.82;;;9.50;60.90;;;;;;5135920;27;20240;-59
2022/04/21 00:38:00;;;;;;;16.92;14.02;;;9.50;60.60;;;;;;5135759;27;20284;-57
2022/04/21 00:40:29;;;;;;;14.00;12.90;;;9.60;61.30;;;;;;5135807;27;20562;-57
2022/04/21 00:42:56;;;;;;;14.60;13.45;;;9.50;61.50;;;;;;5135614;27;20198;-57
2022/04/21 00:45:26;;;;;;;14.45;13.35;;;9.30;61.80;;;;;;5134435;27;20209;-56
2022/04/21 00:47:54;;;;;;;14.65;13.45;;;9.20;62.80;;;;;;5135511;27;20214;-57
2022/04/21 00:50:24;;;;;;;14.80;13.50;;;9.10;62.80;;;;;;5135579;27;20714;-57
2022/04/21 00:52:53;;;;;;;14.82;13.73;;;9.10;62.60;;;;;;5135410;27;20210;-57
2022/04/21 00:55:20;;;;;;;14.57;13.48;;;9.10;63.20;;;;;;5135470;27;20297;-56
2022/04/21 00:57:49;;;;;;;14.55;13.30;;;9.20;62.30;;;;;;5135382;27;20228;-57
2022/04/21 01:00:17;;;;;;;14.15;12.95;;;9.20;62.50;;;;;;5134184;27;20651;-57
2022/04/21 01:02:51;;;;;;;14.93;13.73;;;9.30;62.50;;;;;;5135159;27;20209;-57
2022/04/21 01:05:25;;;;;;;14.02;13.02;;;9.40;62.90;;;;;;5135230;27;20210;-56
2022/04/21 01:07:52;;;;;;;15.15;13.95;;;9.30;63.80;;;;;;5135235;27;20213;-56
2022/04/21 01:10:19;;;;;;;14.40;13.20;;;9.10;64.30;;;;;;5135146;27;20241;-56
2022/04/21 01:12:47;;;;;;;14.32;13.23;;;9.00;64.50;;;;;;5135176;27;20230;-57
2022/04/21 01:15:14;;;;;;;14.93;13.70;;;8.90;64.20;;;;;;5133614;27;20211;-56
2022/04/21 01:17:40;;;;;;;16.13;14.73;;;8.90;65.00;;;;;;5135124;27;20660;-55
2022/04/21 01:20:10;;;;;;;15.38;14.00;;;8.80;65.80;;;;;;5134949;27;20274;-56
2022/04/21 01:22:38;;;;;;;15.05;13.85;;;8.80;65.40;;;;;;5134692;27;20214;-56
2022/04/21 01:25:06;;;;;;;15.27;14.05;;;8.70;65.80;;;;;;5134827;27;20213;-56
2022/04/21 01:27:37;;;;;;;15.93;14.52;;;8.70;66.40;;;;;;5134793;27;20204;-56
2022/04/21 01:30:05;;;;;;;15.50;14.30;;;8.70;65.80;;;;;;5133452;27;20260;-57
2022/04/21 01:32:35;;;;;;;15.07;13.88;;;8.70;66.10;;;;;;5134572;27;20205;-56
2022/04/21 01:35:06;;;;;;;16.10;14.50;;;8.70;66.90;;;;;;5134724;27;20205;-56
2022/04/21 01:43:04;;;;;;;16.00;14.65;;;8.70;66.90;;;;;;5134472;27;20305;-56
2022/04/21 01:45:31;;;;;;;15.43;14.05;;;8.70;66.50;;;;;;5133312;27;20207;-56
2022/04/21 01:47:58;;;;;;;15.70;14.55;;;8.70;66.20;;;;;;5134562;27;20203;-56
2022/04/21 01:50:25;;;;;;;16.08;14.77;;;8.70;66.30;;;;;;5134344;27;20228;-56
2022/04/21 01:52:53;;;;;;;15.65;14.45;;;8.70;66.90;;;;;;5134211;27;20200;-57
2022/04/21 01:55:21;;;;;;;15.30;14.10;;;8.80;65.70;;;;;;5134312;27;20205;-56
2022/04/21 01:57:48;;;;;;;15.00;13.70;;;8.80;66.40;;;;;;5134339;27;20229;-56
2022/04/21 02:00:15;;;;;;;15.60;14.40;;;8.80;66.20;;;;;;5133031;27;20537;-56
2022/04/21 02:02:42;;;;;;;15.68;14.38;;;8.70;66.10;;;;;;5134225;27;20210;-56
2022/04/21 02:05:09;;;;;;;16.88;15.48;;;8.70;67.00;;;;;;5134160;27;20201;-55
2022/04/21 02:07:37;;;;;;;15.50;14.15;;;8.50;67.50;;;;;;5133477;27;20292;-56
2022/04/21 02:10:05;;;;;;;16.98;15.50;;;8.50;67.50;;;;;;5134172;27;20227;-56
2022/04/21 02:12:34;;;;;;;15.55;14.35;;;8.50;67.90;;;;;;5134134;27;20285;-56
2022/04/21 02:15:02;;;;;;;16.88;15.35;;;8.50;68.00;;;;;;5132824;27;20199;-56
2022/04/21 02:17:31;;;;;;;17.55;16.15;;;8.40;68.20;;;;;;5133986;27;20244;-57
2022/04/21 02:19:58;;;;;;;16.23;15.02;;;8.40;68.40;;;;;;5133770;27;20235;-56
2022/04/21 02:22:25;;;;;;;17.88;16.35;;;8.30;68.20;;;;;;5133747;27;20748;-57
2022/04/21 02:24:52;;;;;;;16.63;15.07;;;8.30;69.20;;;;;;5134032;27;20210;-56
2022/04/21 02:27:19;;;;;;;16.65;15.25;;;8.30;69.40;;;;;;5133923;27;20287;-56
2022/04/21 02:29:48;;;;;;;16.95;15.63;;;8.30;68.40;;;;;;5132496;27;20204;-56
2022/04/21 02:32:15;;;;;;;17.38;15.98;;;8.20;69.00;;;;;;5133702;27;20203;-56
2022/04/21 02:34:42;;;;;;;18.70;17.00;;;8.20;68.80;;;;;;5133901;27;20200;-54
2022/04/21 02:37:09;;;;;;;18.55;17.00;;;8.20;69.50;;;;;;5133824;28;20565;-56
2022/04/21 02:39:36;;;;;;;16.45;15.05;;;8.20;69.80;;;;;;5133639;28;20320;-57
2022/04/21 02:42:03;;;;;;;17.67;16.15;;;8.20;69.50;;;;;;5133821;28;20207;-56
2022/04/21 02:44:30;;;;;;;18.77;17.17;;;8.20;69.80;;;;;;5132269;28;20238;-56
2022/04/21 02:47:00;;;;;;;18.25;16.55;;;8.20;69.90;;;;;;5133615;28;20211;-57
2022/04/21 02:49:27;;;;;;;17.63;16.05;;;8.10;69.90;;;;;;5133799;28;20196;-56
2022/04/21 02:51:55;;;;;;;18.80;17.27;;;8.10;70.10;;;;;;5133647;28;20642;-56
2022/04/21 02:57:21;;;;;;;20.65;18.85;;;8.10;69.40;;;;;;5133664;28;20220;-56
2022/04/21 02:59:49;;;;;;;19.63;17.70;;;8.20;69.20;;;;;;5132335;27;20290;-56
2022/04/21 03:02:17;;;;;;;19.83;17.90;;;8.20;69.10;;;;;;5133547;27;20266;-56
2022/04/21 03:04:44;;;;;;;18.38;16.58;;;8.20;69.60;;;;;;5133570;28;20203;-57
2022/04/21 03:07:11;;;;;;;20.00;18.20;;;8.20;70.00;;;;;;5133471;28;20211;-57
2022/04/21 03:09:38;;;;;;;18.38;16.67;;;8.20;69.70;;;;;;5133318;28;20207;-56
2022/04/21 03:12:06;;;;;;;17.52;15.85;;;8.10;69.80;;;;;;5133257;28;20328;-55
2022/04/21 03:14:35;;;;;;;19.45;17.70;;;8.10;70.00;;;;;;5132192;27;20210;-57
2022/04/21 03:17:02;;;;;;;19.60;17.80;;;8.10;70.10;;;;;;5133506;28;20206;-57
2022/04/21 03:19:30;;;;;;;20.63;18.83;;;8.10;69.90;;;;;;5134702;27;20286;-57
2022/04/21 03:24:41;;;;;;;19.13;17.52;;;8.00;70.20;;;;;;5137098;27;20236;-56
2022/04/21 03:27:08;;;;;;;19.42;17.58;;;8.10;70.20;;;;;;5137197;27;20204;-57
2022/04/21 03:29:37;;;;;;;18.60;16.90;;;8.10;70.20;;;;;;5135903;27;20200;-56
2022/04/21 03:32:09;;;;;;;19.40;17.60;;;8.00;71.00;;;;;;5136924;27;20250;-56
2022/04/21 03:34:41;;;;;;;19.73;17.83;;;7.90;70.80;;;;;;5137181;27;20633;-57
2022/04/21 03:37:08;;;;;;;20.67;18.75;;;7.90;70.60;;;;;;5136977;27;20203;-56
2022/04/21 03:39:36;;;;;;;19.55;16.20;;;7.90;70.50;;;;;;5136978;27;20225;-56
2022/04/21 03:42:04;;;;;;;20.48;18.58;;;7.90;71.20;;;;;;5136943;27;20203;-56
2022/04/21 03:44:31;;;;;;;19.23;17.42;;;7.80;70.60;;;;;;5135643;27;20209;-56
2022/04/21 03:46:58;;;;;;;17.83;16.05;;;7.90;70.90;;;;;;5136842;27;20233;-56
2022/04/21 03:49:26;;;;;;;19.83;18.05;;;7.90;71.10;;;;;;5136695;27;20203;-56
2022/04/21 03:51:55;;;;;;;21.23;18.42;;;7.90;70.20;;;;;;5136686;27;20242;-57
2022/04/21 03:54:22;;;;;;;20.60;18.80;;;8.00;69.50;;;;;;5136620;27;20574;-57
2022/04/21 03:56:49;;;;;;;21.58;17.90;;;8.10;69.70;;;;;;5136568;27;20310;-56
2022/04/21 03:59:16;;;;;;;18.13;16.30;;;8.00;70.30;;;;;;5135426;27;20204;-56
2022/04/21 04:01:43;;;;;;;20.10;18.30;;;8.00;70.70;;;;;;5136529;27;20245;-56
2022/04/21 04:04:10;;;;;;;18.92;17.15;;;8.00;70.40;;;;;;5136582;27;20209;-57
2022/04/21 04:12:08;;;;;;;19.65;17.80;;;7.90;70.80;;;;;;5136373;27;20226;-56
2022/04/21 04:14:35;;;;;;;20.65;18.70;;;7.80;70.90;;;;;;5134894;27;20213;-55
2022/04/21 04:17:01;;;;;;;20.23;18.02;;;7.80;70.70;;;;;;5136355;27;20601;-56
2022/04/21 04:19:28;;;;;;;19.80;18.00;;;7.70;71.30;;;;;;5136143;27;20242;-56
2022/04/21 04:21:55;;;;;;;21.63;19.77;;;7.70;71.50;;;;;;5136180;27;20198;-57
2022/04/21 04:24:24;;;;;;;19.42;17.63;;;7.60;71.60;;;;;;5135984;27;20203;-56
2022/04/21 04:26:51;;;;;;;19.10;17.13;;;7.50;72.40;;;;;;5135965;27;20226;-56
2022/04/21 04:29:22;;;;;;;19.73;17.88;;;7.50;72.20;;;;;;5134519;27;20242;-56
2022/04/21 04:31:49;;;;;;;20.95;19.00;;;7.50;71.80;;;;;;5135306;27;20257;-55
2022/04/21 04:34:16;;;;;;;21.95;19.83;;;7.60;72.40;;;;;;5135957;27;20289;-55
2022/04/21 04:36:43;;;;;;;19.60;17.50;;;7.60;71.90;;;;;;5135796;27;20201;-57
2022/04/21 04:39:10;;;;;;;19.88;18.00;;;7.60;72.20;;;;;;5135571;27;20198;-56
2022/04/21 04:44:23;;;;;;;19.70;17.70;;;7.60;72.40;;;;;;5134615;27;20239;-54
2022/04/21 04:46:49;;;;;;;17.83;16.23;;;7.50;72.40;;;;;;5135743;27;20226;-56
2022/04/21 04:49:16;;;;;;;17.60;16.00;;;7.50;72.40;;;;;;5135602;27;20591;-56
2022/04/21 04:51:43;;;;;;;18.52;16.65;;;7.50;72.20;;;;;;5135491;27;20519;-56
2022/04/21 04:54:11;;;;;;;19.13;17.42;;;7.60;72.20;;;;;;5135372;27;20286;-55
2022/04/21 04:56:41;;;;;;;19.70;17.95;;;7.60;72.50;;;;;;5135526;27;20217;-56
2022/04/21 04:59:08;;;;;;;21.30;19.20;;;7.70;72.10;;;;;;5135458;27;20204;-55
2022/04/21 05:01:39;;;;;;;19.55;17.77;;;7.70;71.60;;;;;;5134536;27;20225;-56
2022/04/21 05:04:07;;;;;;;18.85;17.23;;;7.70;72.20;;;;;;5134974;27;20216;-56
2022/04/21 05:06:36;;;;;;;20.42;18.70;;;7.70;72.50;;;;;;5135280;27;20214;-56
2022/04/21 05:09:04;;;;;;;20.52;18.83;;;7.70;72.80;;;;;;5135082;27;20203;-55
2022/04/21 05:11:31;;;;;;;20.45;18.38;;;7.60;73.00;;;;;;5135198;27;20224;-56
2022/04/21 05:13:59;;;;;;;20.27;18.27;;;7.60;72.80;;;;;;5135130;27;20297;-56
2022/04/21 05:16:26;;;;;;;20.17;18.23;;;7.60;73.00;;;;;;5133880;27;20238;-56
2022/04/21 05:18:53;;;;;;;20.35;18.48;;;7.60;72.90;;;;;;5134988;27;20291;-56
2022/04/21 05:21:21;;;;;;;19.38;17.52;;;7.60;72.60;;;;;;5134788;27;20237;-55
2022/04/21 05:23:48;;;;;;;21.27;19.27;;;7.60;72.70;;;;;;5134824;27;20218;-57
2022/04/21 05:26:16;;;;;;;21.98;19.90;;;7.60;72.30;;;;;;5134859;27;20238;-56
2022/04/21 05:28:44;;;;;;;18.73;16.92;;;7.70;71.90;;;;;;5134717;27;20658;-56
2022/04/21 05:31:12;;;;;;;22.27;20.10;;;7.70;72.30;;;;;;5133289;27;20230;-57
2022/04/21 05:33:40;;;;;;;21.60;19.60;;;7.80;72.20;;;;;;5134549;27;20210;-55
2022/04/21 05:36:08;;;;;;;21.95;19.77;;;7.80;72.40;;;;;;5134406;27;20209;-57
2022/04/21 05:38:37;;;;;;;22.25;20.05;;;7.90;72.00;;;;;;5134526;27;20311;-54
2022/04/21 05:41:04;;;;;;;20.17;18.27;;;7.90;71.90;;;;;;5134440;27;20661;-56
2022/04/21 05:43:40;;;;;;;22.83;20.50;;;8.00;72.00;;;;;;5133769;27;20199;-57
2022/04/21 05:46:07;;;;;;;21.02;19.02;;;8.00;72.30;;;;;;5133291;27;20565;-55
2022/04/21 05:48:36;;;;;;;24.27;21.67;;;8.00;72.00;;;;;;5134295;27;20237;-56
2022/04/21 05:51:04;;;;;;;22.20;19.88;;;8.10;71.90;;;;;;5134560;27;20220;-56
2022/04/21 05:53:36;;;;;;;25.45;20.25;;;8.00;72.00;;;;;;5134033;27;20290;-55
2022/04/21 05:56:04;;;;;;;22.55;20.35;;;8.10;72.10;;;;;;5134595;27;20574;-56
2022/04/21 05:58:32;;;;;;;19.95;18.05;;;8.10;72.40;;;;;;5134142;27;20198;-56
2022/04/21 06:01:00;;;;;;;20.50;18.10;;;8.10;71.80;;;;;;5132827;27;20206;-56
2022/04/21 06:03:27;;;;;;;20.73;18.73;;;8.20;71.70;;;;;;5134110;27;20565;-56
2022/04/21 06:05:55;;;;;;;22.88;20.55;;;8.30;71.60;;;;;;5134197;27;20290;-56
2022/04/21 06:08:22;;;;;;;23.83;21.35;;;8.30;72.00;;;;;;5134188;27;20291;-54
2022/04/21 06:10:50;;;;;;;22.90;20.60;;;8.30;72.00;;;;;;5134028;27;20202;-56
2022/04/21 06:13:17;;;;;;;24.20;21.80;;;8.30;71.30;;;;;;5134024;27;20693;-56
2022/04/21 06:15:44;;;;;;;21.73;19.52;;;8.50;70.90;;;;;;5132547;27;20662;-56
2022/04/21 06:18:11;;;;;;;22.83;20.50;;;8.60;70.60;;;;;;5134011;27;20200;-56
2022/04/21 06:20:37;;;;;;;20.30;18.13;;;8.70;70.50;;;;;;5133810;27;20258;-55
2022/04/21 06:23:06;;;;;;;24.25;21.85;;;8.70;71.40;;;;;;5133790;27;20696;-56
2022/04/21 06:25:33;;;;;;;23.02;19.38;;;8.70;70.80;;;;;;5133773;27;20200;-55
2022/04/21 06:28:00;;;;;;;21.63;19.15;;;8.80;70.50;;;;;;5133705;27;20203;-56
2022/04/21 06:30:27;;;;;;;25.50;22.75;;;8.80;70.00;;;;;;5132700;27;20573;-57
2022/04/21 06:32:54;;;;;;;25.23;22.63;;;8.80;70.60;;;;;;5133748;27;20241;-56
2022/04/21 06:35:21;;;;;;;25.60;22.83;;;8.80;70.50;;;;;;5133851;28;20203;-57
2022/04/21 06:37:48;;;;;;;23.92;21.48;;;8.90;70.40;;;;;;5133882;27;20200;-57
2022/04/21 06:40:16;;;;;;;23.88;21.17;;;8.90;70.30;;;;;;5133493;28;20200;-57
2022/04/21 06:42:43;;;;;;;21.40;19.20;;;9.10;70.00;;;;;;5133676;28;20214;-56
2022/04/21 06:48:05;;;;;;;26.67;19.60;;;9.10;70.70;;;;;;5133666;28;20213;-57
2022/04/21 06:50:33;;;;;;;22.33;19.98;;;9.10;70.90;;;;;;5133695;28;20214;-57
2022/04/21 06:53:00;;;;;;;23.90;21.33;;;8.90;70.60;;;;;;5133887;27;20694;-57
2022/04/21 06:55:29;;;;;;;24.65;22.10;;;9.00;70.20;;;;;;5137490;27;20698;-56
2022/04/21 06:57:56;;;;;;;24.00;21.40;;;9.10;70.00;;;;;;5137632;27;20214;-57
2022/04/21 07:00:25;;;;;;;23.13;20.67;;;9.20;69.50;;;;;;5136404;27;20208;-57
2022/04/21 07:02:54;;;;;;;23.33;20.27;;;9.20;70.00;;;;;;5137773;27;20212;-56
2022/04/21 07:05:22;;;;;;;23.30;21.00;;;9.30;69.90;;;;;;5137690;27;20197;-56
2022/04/21 07:07:49;;;;;;;23.27;20.77;;;9.20;70.70;;;;;;5137451;27;20225;-56
2022/04/21 07:10:17;;;;;;;23.63;21.23;;;9.00;69.80;;;;;;5137385;27;20215;-55
2022/04/21 07:12:46;;;;;;;22.52;20.40;;;9.10;70.70;;;;;;5137403;27;20572;-57
2022/04/21 07:15:13;;;;;;;25.77;20.23;;;9.20;69.80;;;;;;5136060;27;20291;-54
2022/04/21 07:17:41;;;;;;;22.27;20.08;;;9.40;69.80;;;;;;5137326;27;20235;-56
2022/04/21 07:20:10;;;;;;;21.85;19.55;;;9.50;69.60;;;;;;5137079;27;20235;-56
2022/04/21 07:22:37;;;;;;;24.83;22.33;;;9.70;69.00;;;;;;5137267;27;20239;-54
2022/04/21 07:25:05;;;;;;;23.75;21.27;;;9.80;68.60;;;;;;5137088;27;20205;-57
2022/04/21 07:27:33;;;;;;;24.13;21.58;;;9.90;68.30;;;;;;5137287;27;20212;-54
2022/04/21 07:30:02;;;;;;;22.42;20.02;;;10.00;67.90;;;;;;5135829;27;20243;-54
2022/04/21 07:32:29;;;;;;;22.55;20.45;;;10.00;68.00;;;;;;5137145;27;20292;-57
2022/04/21 07:34:55;;;;;;;21.83;19.63;;;10.00;68.10;;;;;;5136855;27;20301;-56
2022/04/21 07:37:25;;;;;;;23.00;18.80;;;10.10;67.70;;;;;;5136968;27;20713;-57
2022/04/21 07:39:52;;;;;;;24.00;21.70;;;10.20;67.40;;;;;;5136666;27;20636;-57
2022/04/21 07:42:19;;;;;;;22.15;20.05;;;10.20;67.60;;;;;;5136866;27;20667;-57
2022/04/21 07:44:45;;;;;;;21.23;19.08;;;10.20;67.30;;;;;;5135585;27;20228;-55
2022/04/21 07:47:14;;;;;;;23.10;20.75;;;10.30;67.40;;;;;;5136910;27;20718;-55
2022/04/21 07:49:46;;;;;;;22.08;19.17;;;10.30;67.00;;;;;;5136738;27;20255;-57
2022/04/21 07:55:08;;;;;;;22.60;20.30;;;10.30;66.90;;;;;;5136727;27;20227;-57
2022/04/21 07:57:35;;;;;;;22.60;20.60;;;10.30;67.30;;;;;;5136648;27;20197;-58
2022/04/21 08:00:04;;;;;;;22.25;20.05;;;10.40;66.90;;;;;;5135162;27;20200;-58
2022/04/21 08:02:32;;;;;;;22.48;20.23;;;10.40;66.90;;;;;;5136429;27;20624;-56
2022/04/21 08:04:59;;;;;;;21.85;19.80;;;10.40;67.10;;;;;;5135441;27;20207;-57
2022/04/21 08:07:26;;;;;;;20.90;18.75;;;10.40;67.20;;;;;;5136299;27;20208;-56
2022/04/21 08:09:53;;;;;;;22.85;20.42;;;10.60;66.90;;;;;;5136045;27;20653;-55
2022/04/21 08:12:20;;;;;;;20.80;18.80;;;10.70;65.10;;;;;;5136137;27;20322;-54
2022/04/21 08:14:47;;;;;;;22.08;19.95;;;10.70;66.30;;;;;;5134798;27;20297;-57
2022/04/21 08:17:14;;;;;;;20.75;18.73;;;10.80;66.00;;;;;;5136184;27;20230;-58
2022/04/21 08:19:42;;;;;;;19.95;18.02;;;10.80;66.10;;;;;;5135798;27;20715;-55
2022/04/21 08:22:09;;;;;;;21.15;19.25;;;11.00;65.80;;;;;;5136122;27;20285;-54
2022/04/21 08:32:49;;;;;;;19.98;18.08;;;11.40;65.20;;;;;;5135745;27;20370;-56
2022/04/21 08:35:19;;;;;;;18.80;17.13;;;11.40;62.70;;;;;;5135803;27;20202;-57
2022/04/21 08:37:46;;;;;;;19.55;17.85;;;11.60;63.00;;;;;;5135993;27;20206;-56
2022/04/21 08:40:13;;;;;;;18.45;16.75;;;11.70;60.80;;;;;;5135515;27;20203;-53
2022/04/21 08:42:41;;;;;;;19.50;17.70;;;11.70;60.80;;;;;;5135547;27;20293;-56
2022/04/21 08:45:09;;;;;;;18.98;17.52;;;11.70;62.50;;;;;;5134371;27;20199;-56
2022/04/21 08:47:42;;;;;;;18.35;16.85;;;11.90;61.30;;;;;;5135529;27;20293;-55
2022/04/21 08:50:12;;;;;;;17.63;16.08;;;11.90;60.30;;;;;;5135509;27;20226;-56
2022/04/21 08:52:41;;;;;;;18.95;17.45;;;12.00;60.10;;;;;;5135188;27;20709;-56
2022/04/21 08:55:09;;;;;;;20.02;18.13;;;12.00;59.90;;;;;;5135105;27;20219;-56
2022/04/21 08:57:36;;;;;;;18.00;16.30;;;12.10;59.40;;;;;;5135513;27;20221;-55
2022/04/21 09:00:05;;;;;;;20.42;18.50;;;12.30;60.70;;;;;;5133874;27;20242;-56
2022/04/21 09:02:38;;;;;;;20.08;18.30;;;12.40;60.70;;;;;;5135018;27;20267;-55
2022/04/21 09:05:06;;;;;;;21.52;19.45;;;12.50;60.70;;;;;;5135294;27;20202;-55
2022/04/21 09:07:33;;;;;;;20.77;19.08;;;12.60;60.40;;;;;;5135290;27;20205;-56
2022/04/21 09:10:06;;;;;;;19.25;17.55;;;12.70;61.10;;;;;;5135037;27;20206;-56
2022/04/21 09:12:33;;;;;;;20.67;18.75;;;12.70;61.50;;;;;;5135034;27;20707;-53
2022/04/21 09:15:07;;;;;;;20.90;19.10;;;12.60;60.20;;;;;;5133470;27;20205;-56
2022/04/21 09:17:39;;;;;;;19.52;17.83;;;12.60;60.90;;;;;;5135079;27;20213;-56
2022/04/21 09:20:08;;;;;;;17.70;16.23;;;12.70;59.30;;;;;;5134832;27;20231;-54
2022/04/21 09:22:35;;;;;;;18.67;17.02;;;12.80;59.30;;;;;;5115362;27;20200;-54
2022/04/21 09:25:03;;;;;;;19.80;18.10;;;12.90;60.00;;;;;;5114224;27;20665;-53
2022/04/21 09:27:44;;;;;;;20.50;18.75;;;13.10;59.80;;;;;;5119545;27;20197;-53
2022/04/21 09:30:13;;;;;;;19.42;17.80;;;13.20;58.20;;;;;;5132651;27;20290;-55
2022/04/21 09:32:41;;;;;;;19.13;17.50;;;13.20;58.60;;;;;;5119354;27;20232;-54
2022/04/21 09:35:10;;;;;;;19.88;18.10;;;13.30;59.20;;;;;;5113465;28;20229;-55
2022/04/21 09:37:50;;;;;;;20.25;18.45;;;13.40;58.30;;;;;;5113776;28;20565;-55
2022/04/21 09:40:20;;;;;;;20.80;19.08;;;13.40;57.70;;;;;;5124560;27;20202;-54
2022/04/21 09:42:58;;;;;;;18.70;17.10;;;13.30;57.70;;;;;;5133744;27;20199;-55
2022/04/21 09:48:18;;;;;;;19.27;17.50;;;13.50;57.70;;;;;;5133607;27;20199;-53
2022/04/21 09:50:49;;;;;;;20.10;18.40;;;13.70;57.80;;;;;;5133725;27;20286;-56
2022/04/21 09:53:19;;;;;;;19.52;17.92;;;13.90;56.90;;;;;;5133483;27;20635;-56
2022/04/21 09:55:49;;;;;;;20.23;18.42;;;13.90;57.10;;;;;;5133411;27;20221;-54
2022/04/21 09:58:17;;;;;;;19.35;17.85;;;14.10;56.70;;;;;;5133419;27;20207;-55
2022/04/21 10:00:45;;;;;;;18.92;17.23;;;14.20;56.30;;;;;;5132248;27;20199;-55
2022/04/21 10:03:12;;;;;;;18.05;16.23;;;14.30;55.20;;;;;;5133304;27;20207;-55
2022/04/21 10:05:40;;;;;;;20.40;18.77;;;14.40;54.90;;;;;;5133527;27;20203;-55
2022/04/21 10:08:09;;;;;;;18.90;17.55;;;14.40;56.60;;;;;;5133346;27;20215;-56
2022/04/21 10:10:37;;;;;;;18.00;16.60;;;14.60;56.10;;;;;;5133189;27;20546;-53
2022/04/21 10:13:08;;;;;;;19.80;18.10;;;14.70;55.90;;;;;;5133159;27;20237;-56
2022/04/21 10:15:35;;;;;;;18.80;17.40;;;14.90;54.50;;;;;;5131579;27;20199;-52
2022/04/21 10:18:03;;;;;;;17.95;16.45;;;14.90;53.80;;;;;;5133027;27;20209;-57
2022/04/21 10:20:31;;;;;;;19.05;17.55;;;15.00;53.10;;;;;;5133107;27;20234;-54
2022/04/21 10:23:00;;;;;;;19.00;17.40;;;15.00;53.00;;;;;;5133322;27;20206;-53
2022/04/21 10:25:42;;;;;;;18.40;16.90;;;15.00;53.60;;;;;;5132659;27;20203;-53
2022/04/21 10:28:46;;;;;;;17.57;16.17;;;15.10;53.60;;;;;;5132396;27;20208;-53
2022/04/21 10:31:27;;;;;;;18.13;16.43;;;15.30;53.20;;;;;;5068368;28;20459;-56
2022/04/21 10:33:56;;;;;;;19.73;18.23;;;15.40;54.30;;;;;;5069375;28;20845;-56
2022/04/21 10:36:41;;;;;;;17.70;16.40;;;15.50;53.40;;;;;;5105606;27;20452;-56
2022/04/21 10:39:12;;;;;;;17.80;16.50;;;15.70;52.10;;;;;;5132693;28;20198;-53
2022/04/21 10:41:39;;;;;;;17.40;15.90;;;15.70;51.30;;;;;;5132767;28;20455;-55
2022/04/21 10:44:15;;;;;;;15.40;14.20;;;15.70;52.40;;;;;;5133185;28;20535;-53
2022/04/21 10:46:42;;;;;;;15.63;14.30;;;15.60;52.80;;;;;;5132555;28;20448;-53
2022/04/21 10:49:09;;;;;;;16.85;15.65;;;15.40;52.50;;;;;;5132904;28;20543;-57
2022/04/21 10:58:51;;;;;;;17.37;16.07;;;15.50;51.80;;;;;;5132834;28;20427;-53
2022/04/21 11:01:22;;;;;;;17.17;15.97;;;15.80;54.00;;;;;;5131195;27;20451;-53
2022/04/21 11:04:25;;;;;;;16.03;14.83;;;16.00;52.00;;;;;;5132925;28;20468;-55
2022/04/21 11:07:05;;;;;;;17.70;16.50;;;16.20;52.20;;;;;;5127289;27;20525;-54
2022/04/21 11:09:51;;;;;;;15.53;14.30;;;16.50;50.80;;;;;;5133234;28;20451;-55
2022/04/21 11:12:38;;;;;;;15.67;14.57;;;16.50;49.60;;;;;;5133291;27;20454;-57
2022/04/21 11:15:41;;;;;;;17.20;15.93;;;16.50;50.10;;;;;;5131861;28;20451;-55
2022/04/21 11:18:10;;;;;;;16.57;15.30;;;16.50;50.90;;;;;;5126348;27;20491;-55
2022/04/21 11:20:39;;;;;;;14.80;13.70;;;17.10;50.60;;;;;;5133136;28;20563;-54
2022/04/21 11:23:08;;;;;;;15.17;14.17;;;17.60;49.00;;;;;;5133289;28;20448;-55
2022/04/21 11:25:35;;;;;;;15.67;14.57;;;18.00;49.10;;;;;;5133113;28;20469;-57
2022/04/21 11:28:02;;;;;;;14.70;13.70;;;18.00;48.70;;;;;;5133484;28;20456;-56
2022/04/21 11:30:31;;;;;;;15.50;14.50;;;18.00;47.90;;;;;;5131720;28;20441;-57
2022/04/21 11:32:57;;;;;;;14.43;13.50;;;18.10;49.00;;;;;;5133147;28;21281;-57
2022/04/21 11:35:26;;;;;;;16.23;15.03;;;18.60;47.50;;;;;;5133168;28;20449;-55
2022/04/21 11:37:58;;;;;;;13.63;12.73;;;18.70;46.50;;;;;;5133260;28;20851;-57
2022/04/21 11:40:31;;;;;;;13.40;12.57;;;18.60;46.60;;;;;;5134139;27;20436;-56
2022/04/21 11:43:00;;;;;;;14.73;13.67;;;18.40;47.80;;;;;;5136861;27;20790;-57
2022/04/21 11:45:28;;;;;;;15.23;14.33;;;18.60;46.90;;;;;;5135447;27;20467;-57
2022/04/21 11:47:55;;;;;;;13.93;13.00;;;19.60;44.70;;;;;;5136786;27;20458;-55
2022/04/21 11:50:23;;;;;;;10.23;9.63;;;20.40;45.30;;;;;;5136806;27;20536;-57
2022/04/21 11:52:55;;;;;;;13.10;12.20;;;20.70;44.70;;;;;;5136556;27;20448;-58
2022/04/21 11:55:26;;;;;;;14.03;13.23;;;20.90;44.00;;;;;;5136653;27;20529;-57
2022/04/21 11:57:53;;;;;;;13.60;12.80;;;21.70;43.50;;;;;;5136476;27;20444;-56
2022/04/21 12:08:35;;;;;;;13.10;12.20;;;22.50;38.40;;;;;;5136458;27;20428;-57
2022/04/21 12:11:02;;;;;;;12.20;11.50;;;21.40;40.10;;;;;;5136271;27;20447;-58
2022/04/21 12:13:29;;;;;;;11.77;11.17;;;20.60;41.40;;;;;;5136326;27;20492;-57
2022/04/21 12:15:56;;;;;;;11.50;10.90;;;19.90;42.10;;;;;;5134962;27;20451;-56
2022/04/21 12:18:23;;;;;;;11.40;10.80;;;19.30;44.60;;;;;;5136255;27;20540;-55
2022/04/21 12:20:53;;;;;;;11.10;10.60;;;18.80;44.60;;;;;;5135956;27;20484;-58
2022/04/21 12:23:24;;;;;;;11.40;10.80;;;18.50;45.90;;;;;;5136138;27;20460;-56
2022/04/21 12:25:52;;;;;;;11.17;10.57;;;18.10;46.10;;;;;;5135925;27;20450;-57
2022/04/21 12:28:19;;;;;;;11.60;10.80;;;18.30;46.30;;;;;;5136144;27;20539;-58
2022/04/21 12:30:46;;;;;;;10.97;10.00;;;18.30;46.90;;;;;;5134604;27;20751;-56
2022/04/21 12:33:13;;;;;;;11.00;10.50;;;18.20;49.40;;;;;;5135642;27;20843;-58
2022/04/21 12:35:45;;;;;;;11.27;10.57;;;17.90;47.50;;;;;;5136103;27;20955;-57
2022/04/21 12:41:02;;;;;;;9.13;8.73;;;17.80;46.50;;;;;;5135669;27;20416;-57
2022/04/21 12:43:30;;;;;;;10.30;9.70;;;17.80;45.10;;;;;;5135546;27;20472;-54
2022/04/21 12:45:58;;;;;;;9.00;8.60;;;17.60;44.70;;;;;;5134540;27;20451;-57
2022/04/21 12:48:26;;;;;;;10.27;9.87;;;17.40;46.50;;;;;;5135676;27;20443;-57
2022/04/21 12:50:54;;;;;;;9.73;9.33;;;17.60;45.80;;;;;;5135230;27;20543;-57
2022/04/21 12:53:29;;;;;;;8.80;8.40;;;17.80;45.80;;;;;;5135419;27;20487;-57
2022/04/21 12:56:08;;;;;;;10.20;9.60;;;17.90;47.30;;;;;;5135318;27;20811;-55
2022/04/21 12:58:34;;;;;;;9.20;8.77;;;17.90;45.80;;;;;;5135470;27;20455;-56
2022/04/21 13:01:02;;;;;;;10.30;9.80;;;18.00;45.00;;;;;;5134041;27;20444;-56
2022/04/21 13:03:29;;;;;;;10.47;9.97;;;18.20;44.70;;;;;;5135338;27;20464;-58
2022/04/21 13:05:57;;;;;;;10.60;10.10;;;18.30;44.80;;;;;;5135308;27;20433;-57
2022/04/21 13:08:26;;;;;;;10.90;10.30;;;18.30;44.80;;;;;;5135243;27;20451;-56
2022/04/21 13:10:54;;;;;;;9.97;9.57;;;18.50;44.40;;;;;;5134851;27;20451;-54
2022/04/21 13:13:23;;;;;;;11.50;10.90;;;18.70;44.40;;;;;;5134937;27;22422;-56
2022/04/21 13:15:50;;;;;;;10.10;9.70;;;18.90;43.80;;;;;;5133731;27;20440;-57
2022/04/21 13:18:17;;;;;;;10.03;9.53;;;19.10;44.90;;;;;;5134998;27;20448;-55
2022/04/21 13:23:29;;;;;;;10.20;9.70;;;19.10;42.80;;;;;;5135147;27;21007;-54
2022/04/21 13:25:57;;;;;;;9.30;8.90;;;19.10;43.10;;;;;;5134710;27;20462;-55
2022/04/21 13:28:27;;;;;;;10.70;10.10;;;19.20;43.00;;;;;;5134838;27;20448;-56
2022/04/21 13:33:35;;;;;;;9.67;9.27;;;19.30;42.50;;;;;;5134277;27;20464;-57
2022/04/21 13:36:02;;;;;;;10.13;9.63;;;19.40;42.80;;;;;;5134539;27;20445;-55
2022/04/21 13:38:29;;;;;;;8.60;7.80;;;19.30;42.00;;;;;;5134553;27;20931;-54
2022/04/21 13:40:56;;;;;;;11.03;10.37;;;19.30;42.50;;;;;;5134476;27;20459;-56
2022/04/21 13:43:23;;;;;;;10.13;9.73;;;19.10;43.70;;;;;;5134512;27;20519;-55